sensor_id;sensor_type;location;lat;lon;timestamp;temperature;humidity
19039;DHT22;9652;49.014;12.052;2023-07-29T00:00:07;21.40;79.70
19039;DHT22;9652;49.014;12.052;2023-07-29T00:02:42;21.40;80.10
19039;DHT22;9652;49.014;12.052;2023-07-29T00:05:09;21.40;80.60
19039;DHT22;9652;49.014;12.052;2023-07-29T00:07:36;21.40;80.60
19039;DHT22;9652;49.014;12.052;2023-07-29T00:10:05;21.40;80.80
19039;DHT22;9652;49.014;12.052;2023-07-29T00:12:33;21.40;80.90
19039;DHT22;9652;49.014;12.052;2023-07-29T00:15:00;21.40;81.00
19039;DHT22;9652;49.014;12.052;2023-07-29T00:17:27;21.40;81.00
19039;DHT22;9652;49.014;12.052;2023-07-29T00:19:55;21.40;81.10
19039;DHT22;9652;49.014;12.052;2023-07-29T00:22:23;21.40;81.30
19039;DHT22;9652;49.014;12.052;2023-07-29T00:24:52;21.40;81.40
19039;DHT22;9652;49.014;12.052;2023-07-29T00:27:20;21.40;81.60
19039;DHT22;9652;49.014;12.052;2023-07-29T00:29:47;21.40;81.60
19039;DHT22;9652;49.014;12.052;2023-07-29T00:32:15;21.40;81.60
19039;DHT22;9652;49.014;12.052;2023-07-29T00:34:44;21.40;81.80
19039;DHT22;9652;49.014;12.052;2023-07-29T00:37:12;21.40;81.90
19039;DHT22;9652;49.014;12.052;2023-07-29T00:39:39;21.40;82.10
19039;DHT22;9652;49.014;12.052;2023-07-29T00:42:08;21.40;82.10
19039;DHT22;9652;49.014;12.052;2023-07-29T00:44:36;21.40;82.20
19039;DHT22;9652;49.014;12.052;2023-07-29T00:47:05;21.40;82.20
19039;DHT22;9652;49.014;12.052;2023-07-29T00:49:34;21.30;82.20
19039;DHT22;9652;49.014;12.052;2023-07-29T00:52:02;21.30;82.20
19039;DHT22;9652;49.014;12.052;2023-07-29T00:54:31;21.30;82.30
19039;DHT22;9652;49.014;12.052;2023-07-29T00:56:58;21.30;82.50
19039;DHT22;9652;49.014;12.052;2023-07-29T00:59:26;21.30;82.50
19039;DHT22;9652;49.014;12.052;2023-07-29T01:01:57;21.30;82.50
19039;DHT22;9652;49.014;12.052;2023-07-29T01:04:25;21.20;82.50
19039;DHT22;9652;49.014;12.052;2023-07-29T01:07:00;21.30;82.60
19039;DHT22;9652;49.014;12.052;2023-07-29T01:09:43;21.20;83.00
19039;DHT22;9652;49.014;12.052;2023-07-29T01:12:21;21.20;83.00
19039;DHT22;9652;49.014;12.052;2023-07-29T01:14:58;21.20;82.80
19039;DHT22;9652;49.014;12.052;2023-07-29T01:17:33;21.20;82.80
19039;DHT22;9652;49.014;12.052;2023-07-29T01:20:08;21.20;82.70
19039;DHT22;9652;49.014;12.052;2023-07-29T01:22:37;21.20;82.60
19039;DHT22;9652;49.014;12.052;2023-07-29T01:25:08;21.10;83.30
19039;DHT22;9652;49.014;12.052;2023-07-29T01:27:35;21.10;82.70
19039;DHT22;9652;49.014;12.052;2023-07-29T01:30:02;21.10;82.80
19039;DHT22;9652;49.014;12.052;2023-07-29T01:32:37;21.10;83.00
19039;DHT22;9652;49.014;12.052;2023-07-29T01:35:19;21.00;83.40
19039;DHT22;9652;49.014;12.052;2023-07-29T01:37:52;21.00;83.50
19039;DHT22;9652;49.014;12.052;2023-07-29T01:40:26;21.00;83.30
19039;DHT22;9652;49.014;12.052;2023-07-29T01:42:56;21.00;83.50
19039;DHT22;9652;49.014;12.052;2023-07-29T01:45:24;21.00;83.50
19039;DHT22;9652;49.014;12.052;2023-07-29T01:47:51;20.90;83.60
19039;DHT22;9652;49.014;12.052;2023-07-29T01:50:19;20.90;83.60
19039;DHT22;9652;49.014;12.052;2023-07-29T01:52:46;21.00;83.80
19039;DHT22;9652;49.014;12.052;2023-07-29T01:55:14;20.90;83.80
19039;DHT22;9652;49.014;12.052;2023-07-29T01:57:42;21.00;84.00
19039;DHT22;9652;49.014;12.052;2023-07-29T02:00:11;21.00;84.10
19039;DHT22;9652;49.014;12.052;2023-07-29T02:02:41;21.00;84.10
19039;DHT22;9652;49.014;12.052;2023-07-29T02:05:08;21.00;84.10
19039;DHT22;9652;49.014;12.052;2023-07-29T02:07:35;21.00;84.00
19039;DHT22;9652;49.014;12.052;2023-07-29T02:10:03;21.00;84.10
19039;DHT22;9652;49.014;12.052;2023-07-29T02:12:30;21.00;84.20
19039;DHT22;9652;49.014;12.052;2023-07-29T02:14:59;21.00;84.30
19039;DHT22;9652;49.014;12.052;2023-07-29T02:17:26;21.00;84.30
19039;DHT22;9652;49.014;12.052;2023-07-29T02:19:53;21.00;84.00
19039;DHT22;9652;49.014;12.052;2023-07-29T02:22:23;21.00;84.00
19039;DHT22;9652;49.014;12.052;2023-07-29T02:24:50;21.00;84.00
19039;DHT22;9652;49.014;12.052;2023-07-29T02:27:18;21.00;84.10
19039;DHT22;9652;49.014;12.052;2023-07-29T02:29:45;21.00;84.10
19039;DHT22;9652;49.014;12.052;2023-07-29T02:32:13;21.00;84.00
19039;DHT22;9652;49.014;12.052;2023-07-29T02:34:40;20.90;83.90
19039;DHT22;9652;49.014;12.052;2023-07-29T02:37:08;20.90;83.70
19039;DHT22;9652;49.014;12.052;2023-07-29T02:39:35;20.90;83.60
19039;DHT22;9652;49.014;12.052;2023-07-29T02:42:03;20.90;83.40
19039;DHT22;9652;49.014;12.052;2023-07-29T02:44:31;20.80;83.20
19039;DHT22;9652;49.014;12.052;2023-07-29T02:46:58;20.90;83.10
19039;DHT22;9652;49.014;12.052;2023-07-29T02:49:26;20.80;82.90
19039;DHT22;9652;49.014;12.052;2023-07-29T02:51:53;20.70;82.70
19039;DHT22;9652;49.014;12.052;2023-07-29T02:54:20;20.70;82.60
19039;DHT22;9652;49.014;12.052;2023-07-29T02:56:49;20.70;82.60
19039;DHT22;9652;49.014;12.052;2023-07-29T02:59:16;20.60;82.60
19039;DHT22;9652;49.014;12.052;2023-07-29T03:01:44;20.60;82.70
19039;DHT22;9652;49.014;12.052;2023-07-29T03:04:11;20.50;82.70
19039;DHT22;9652;49.014;12.052;2023-07-29T03:06:40;20.50;82.80
19039;DHT22;9652;49.014;12.052;2023-07-29T03:09:08;20.40;82.90
19039;DHT22;9652;49.014;12.052;2023-07-29T03:11:35;20.40;82.90
19039;DHT22;9652;49.014;12.052;2023-07-29T03:14:02;20.40;83.00
19039;DHT22;9652;49.014;12.052;2023-07-29T03:16:30;20.40;83.00
19039;DHT22;9652;49.014;12.052;2023-07-29T03:18:58;20.40;83.10
19039;DHT22;9652;49.014;12.052;2023-07-29T03:21:26;20.30;83.10
19039;DHT22;9652;49.014;12.052;2023-07-29T03:23:54;20.30;83.10
19039;DHT22;9652;49.014;12.052;2023-07-29T03:26:21;20.30;83.30
19039;DHT22;9652;49.014;12.052;2023-07-29T03:28:48;20.20;83.30
19039;DHT22;9652;49.014;12.052;2023-07-29T03:31:15;20.20;83.30
19039;DHT22;9652;49.014;12.052;2023-07-29T03:33:45;20.20;83.30
19039;DHT22;9652;49.014;12.052;2023-07-29T03:36:14;20.20;83.30
19039;DHT22;9652;49.014;12.052;2023-07-29T03:38:41;20.20;83.30
19039;DHT22;9652;49.014;12.052;2023-07-29T03:41:11;20.10;83.20
19039;DHT22;9652;49.014;12.052;2023-07-29T03:43:38;20.10;83.30
19039;DHT22;9652;49.014;12.052;2023-07-29T03:46:06;20.10;83.30
19039;DHT22;9652;49.014;12.052;2023-07-29T03:48:33;20.10;83.30
19039;DHT22;9652;49.014;12.052;2023-07-29T03:51:00;20.10;83.50
19039;DHT22;9652;49.014;12.052;2023-07-29T03:53:27;20.10;83.70
19039;DHT22;9652;49.014;12.052;2023-07-29T03:55:54;20.00;83.80
19039;DHT22;9652;49.014;12.052;2023-07-29T03:58:23;20.00;84.00
19039;DHT22;9652;49.014;12.052;2023-07-29T04:00:50;20.10;84.20
19039;DHT22;9652;49.014;12.052;2023-07-29T04:03:18;20.10;84.30
19039;DHT22;9652;49.014;12.052;2023-07-29T04:05:46;20.10;84.50
19039;DHT22;9652;49.014;12.052;2023-07-29T04:08:14;20.10;84.70
19039;DHT22;9652;49.014;12.052;2023-07-29T04:10:41;20.10;84.60
19039;DHT22;9652;49.014;12.052;2023-07-29T04:13:08;20.10;84.60
19039;DHT22;9652;49.014;12.052;2023-07-29T04:15:37;20.00;84.60
19039;DHT22;9652;49.014;12.052;2023-07-29T04:18:04;20.10;85.00
19039;DHT22;9652;49.014;12.052;2023-07-29T04:20:31;20.10;85.50
19039;DHT22;9652;49.014;12.052;2023-07-29T04:22:59;20.10;85.80
19039;DHT22;9652;49.014;12.052;2023-07-29T04:25:26;20.20;86.10
19039;DHT22;9652;49.014;12.052;2023-07-29T04:27:54;20.20;86.30
19039;DHT22;9652;49.014;12.052;2023-07-29T04:30:23;20.30;86.30
19039;DHT22;9652;49.014;12.052;2023-07-29T04:32:51;20.30;86.30
19039;DHT22;9652;49.014;12.052;2023-07-29T04:35:18;20.40;86.30
19039;DHT22;9652;49.014;12.052;2023-07-29T04:37:45;20.40;86.20
19039;DHT22;9652;49.014;12.052;2023-07-29T04:40:14;20.40;86.20
19039;DHT22;9652;49.014;12.052;2023-07-29T04:42:41;20.50;86.20
19039;DHT22;9652;49.014;12.052;2023-07-29T04:45:09;20.50;86.10
19039;DHT22;9652;49.014;12.052;2023-07-29T04:47:37;20.60;86.30
19039;DHT22;9652;49.014;12.052;2023-07-29T04:50:07;20.60;86.80
19039;DHT22;9652;49.014;12.052;2023-07-29T04:52:36;20.70;87.40
19039;DHT22;9652;49.014;12.052;2023-07-29T04:55:03;20.80;87.50
19039;DHT22;9652;49.014;12.052;2023-07-29T04:57:31;20.90;87.70
19039;DHT22;9652;49.014;12.052;2023-07-29T04:59:58;21.00;87.70
19039;DHT22;9652;49.014;12.052;2023-07-29T05:02:25;21.00;87.50
19039;DHT22;9652;49.014;12.052;2023-07-29T05:04:54;21.10;87.30
19039;DHT22;9652;49.014;12.052;2023-07-29T05:07:23;21.20;87.20
19039;DHT22;9652;49.014;12.052;2023-07-29T05:09:50;21.20;87.40
19039;DHT22;9652;49.014;12.052;2023-07-29T05:12:17;21.30;87.40
19039;DHT22;9652;49.014;12.052;2023-07-29T05:14:44;21.40;87.70
19039;DHT22;9652;49.014;12.052;2023-07-29T05:17:11;21.50;87.80
19039;DHT22;9652;49.014;12.052;2023-07-29T05:19:39;21.60;87.70
19039;DHT22;9652;49.014;12.052;2023-07-29T05:22:07;21.70;87.60
19039;DHT22;9652;49.014;12.052;2023-07-29T05:24:37;21.80;87.30
19039;DHT22;9652;49.014;12.052;2023-07-29T05:27:04;21.80;87.00
19039;DHT22;9652;49.014;12.052;2023-07-29T05:29:34;21.90;87.00
19039;DHT22;9652;49.014;12.052;2023-07-29T05:32:01;22.00;86.70
19039;DHT22;9652;49.014;12.052;2023-07-29T05:34:29;22.00;86.20
19039;DHT22;9652;49.014;12.052;2023-07-29T05:36:56;22.10;86.00
19039;DHT22;9652;49.014;12.052;2023-07-29T05:39:23;22.10;85.80
19039;DHT22;9652;49.014;12.052;2023-07-29T05:41:52;22.20;85.50
19039;DHT22;9652;49.014;12.052;2023-07-29T05:44:19;22.20;85.30
19039;DHT22;9652;49.014;12.052;2023-07-29T05:46:46;22.20;85.50
19039;DHT22;9652;49.014;12.052;2023-07-29T05:49:14;22.30;86.10
19039;DHT22;9652;49.014;12.052;2023-07-29T05:51:41;22.30;86.60
19039;DHT22;9652;49.014;12.052;2023-07-29T05:54:09;22.40;86.90
19039;DHT22;9652;49.014;12.052;2023-07-29T05:56:36;22.60;87.10
19039;DHT22;9652;49.014;12.052;2023-07-29T05:59:04;22.70;87.00
19039;DHT22;9652;49.014;12.052;2023-07-29T06:01:32;22.80;86.70
19039;DHT22;9652;49.014;12.052;2023-07-29T06:03:58;23.00;86.60
19039;DHT22;9652;49.014;12.052;2023-07-29T06:06:25;23.10;86.30
19039;DHT22;9652;49.014;12.052;2023-07-29T06:08:53;23.20;86.10
19039;DHT22;9652;49.014;12.052;2023-07-29T06:11:20;23.40;85.90
19039;DHT22;9652;49.014;12.052;2023-07-29T06:13:47;23.40;85.50
19039;DHT22;9652;49.014;12.052;2023-07-29T06:16:16;23.50;85.10
19039;DHT22;9652;49.014;12.052;2023-07-29T06:18:43;23.60;84.30
19039;DHT22;9652;49.014;12.052;2023-07-29T06:21:10;23.70;84.10
19039;DHT22;9652;49.014;12.052;2023-07-29T06:23:42;23.80;83.80
19039;DHT22;9652;49.014;12.052;2023-07-29T06:26:09;23.80;83.30
19039;DHT22;9652;49.014;12.052;2023-07-29T06:28:36;23.90;83.00
19039;DHT22;9652;49.014;12.052;2023-07-29T06:31:03;24.00;82.70
19039;DHT22;9652;49.014;12.052;2023-07-29T06:33:32;24.00;82.60
19039;DHT22;9652;49.014;12.052;2023-07-29T06:35:59;24.10;82.30
19039;DHT22;9652;49.014;12.052;2023-07-29T06:38:26;24.20;82.20
19039;DHT22;9652;49.014;12.052;2023-07-29T06:40:53;24.30;82.20
19039;DHT22;9652;49.014;12.052;2023-07-29T06:43:20;24.40;82.00
19039;DHT22;9652;49.014;12.052;2023-07-29T06:45:47;24.50;81.50
19039;DHT22;9652;49.014;12.052;2023-07-29T06:48:14;24.60;81.00
19039;DHT22;9652;49.014;12.052;2023-07-29T06:50:43;24.70;80.30
19039;DHT22;9652;49.014;12.052;2023-07-29T06:53:10;24.70;79.40
19039;DHT22;9652;49.014;12.052;2023-07-29T06:55:37;24.80;79.10
19039;DHT22;9652;49.014;12.052;2023-07-29T06:58:04;24.90;78.60
19039;DHT22;9652;49.014;12.052;2023-07-29T07:00:32;24.90;78.30
19039;DHT22;9652;49.014;12.052;2023-07-29T07:02:59;24.90;78.40
19039;DHT22;9652;49.014;12.052;2023-07-29T07:05:26;25.00;78.40
19039;DHT22;9652;49.014;12.052;2023-07-29T07:07:54;25.10;78.10
19039;DHT22;9652;49.014;12.052;2023-07-29T07:10:21;25.10;77.20
19039;DHT22;9652;49.014;12.052;2023-07-29T07:12:49;25.10;76.40
19039;DHT22;9652;49.014;12.052;2023-07-29T07:15:16;25.10;75.70
19039;DHT22;9652;49.014;12.052;2023-07-29T07:17:43;25.10;75.70
19039;DHT22;9652;49.014;12.052;2023-07-29T07:20:11;25.00;75.80
19039;DHT22;9652;49.014;12.052;2023-07-29T07:22:38;25.00;75.90
19039;DHT22;9652;49.014;12.052;2023-07-29T07:25:08;24.90;75.90
19039;DHT22;9652;49.014;12.052;2023-07-29T07:27:35;24.90;75.80
19039;DHT22;9652;49.014;12.052;2023-07-29T07:30:03;24.90;75.70
19039;DHT22;9652;49.014;12.052;2023-07-29T07:32:34;24.70;75.50
19039;DHT22;9652;49.014;12.052;2023-07-29T07:35:01;24.70;76.00
19039;DHT22;9652;49.014;12.052;2023-07-29T07:37:28;24.60;76.40
19039;DHT22;9652;49.014;12.052;2023-07-29T07:39:55;24.50;76.90
19039;DHT22;9652;49.014;12.052;2023-07-29T07:42:24;24.50;77.00
19039;DHT22;9652;49.014;12.052;2023-07-29T07:44:51;24.50;77.40
19039;DHT22;9652;49.014;12.052;2023-07-29T07:47:19;24.50;77.90
19039;DHT22;9652;49.014;12.052;2023-07-29T07:49:46;24.50;78.30
19039;DHT22;9652;49.014;12.052;2023-07-29T07:52:14;24.60;78.20
19039;DHT22;9652;49.014;12.052;2023-07-29T07:54:42;24.70;78.30
19039;DHT22;9652;49.014;12.052;2023-07-29T07:57:09;24.80;78.70
19039;DHT22;9652;49.014;12.052;2023-07-29T07:59:37;24.90;78.50
19039;DHT22;9652;49.014;12.052;2023-07-29T08:02:05;25.00;78.80
19039;DHT22;9652;49.014;12.052;2023-07-29T08:04:32;25.00;77.70
19039;DHT22;9652;49.014;12.052;2023-07-29T08:06:59;25.10;76.90
19039;DHT22;9652;49.014;12.052;2023-07-29T08:09:26;25.10;76.40
19039;DHT22;9652;49.014;12.052;2023-07-29T08:11:53;25.10;75.70
19039;DHT22;9652;49.014;12.052;2023-07-29T08:14:20;25.20;75.10
19039;DHT22;9652;49.014;12.052;2023-07-29T08:16:48;25.00;74.70
19039;DHT22;9652;49.014;12.052;2023-07-29T08:19:15;24.90;75.30
19039;DHT22;9652;49.014;12.052;2023-07-29T08:21:42;24.70;75.40
19039;DHT22;9652;49.014;12.052;2023-07-29T08:24:09;24.40;75.80
19039;DHT22;9652;49.014;12.052;2023-07-29T08:26:36;24.20;76.60
19039;DHT22;9652;49.014;12.052;2023-07-29T08:29:03;23.90;77.40
19039;DHT22;9652;49.014;12.052;2023-07-29T08:31:30;23.60;78.30
19039;DHT22;9652;49.014;12.052;2023-07-29T08:34:00;23.40;79.30
19039;DHT22;9652;49.014;12.052;2023-07-29T08:36:27;23.10;80.00
19039;DHT22;9652;49.014;12.052;2023-07-29T08:38:54;23.00;80.80
19039;DHT22;9652;49.014;12.052;2023-07-29T08:41:25;22.80;81.40
19039;DHT22;9652;49.014;12.052;2023-07-29T08:44:01;22.70;82.00
19039;DHT22;9652;49.014;12.052;2023-07-29T08:46:33;22.60;82.50
19039;DHT22;9652;49.014;12.052;2023-07-29T08:49:01;22.50;82.80
19039;DHT22;9652;49.014;12.052;2023-07-29T08:51:29;22.40;82.90
19039;DHT22;9652;49.014;12.052;2023-07-29T08:53:58;22.30;83.30
19039;DHT22;9652;49.014;12.052;2023-07-29T08:56:26;22.20;83.70
19039;DHT22;9652;49.014;12.052;2023-07-29T08:58:56;22.10;83.90
19039;DHT22;9652;49.014;12.052;2023-07-29T09:01:25;22.10;84.30
19039;DHT22;9652;49.014;12.052;2023-07-29T09:03:53;22.00;84.80
19039;DHT22;9652;49.014;12.052;2023-07-29T09:06:21;22.00;85.30
19039;DHT22;9652;49.014;12.052;2023-07-29T09:08:51;22.00;86.10
19039;DHT22;9652;49.014;12.052;2023-07-29T09:11:22;22.00;86.80
19039;DHT22;9652;49.014;12.052;2023-07-29T09:13:49;22.10;87.50
19039;DHT22;9652;49.014;12.052;2023-07-29T09:16:17;22.10;88.10
19039;DHT22;9652;49.014;12.052;2023-07-29T09:18:45;22.20;88.80
19039;DHT22;9652;49.014;12.052;2023-07-29T09:21:15;22.40;89.50
19039;DHT22;9652;49.014;12.052;2023-07-29T09:23:45;22.40;89.90
19039;DHT22;9652;49.014;12.052;2023-07-29T09:26:12;22.60;90.20
19039;DHT22;9652;49.014;12.052;2023-07-29T09:28:40;22.70;90.10
19039;DHT22;9652;49.014;12.052;2023-07-29T09:31:19;22.80;90.00
19039;DHT22;9652;49.014;12.052;2023-07-29T09:33:46;22.90;90.20
19039;DHT22;9652;49.014;12.052;2023-07-29T09:36:14;23.10;90.00
19039;DHT22;9652;49.014;12.052;2023-07-29T09:38:41;23.20;89.70
19039;DHT22;9652;49.014;12.052;2023-07-29T09:41:13;23.20;89.80
19039;DHT22;9652;49.014;12.052;2023-07-29T09:43:42;23.20;90.00
19039;DHT22;9652;49.014;12.052;2023-07-29T09:46:09;23.40;90.20
19039;DHT22;9652;49.014;12.052;2023-07-29T09:48:37;23.50;90.30
19039;DHT22;9652;49.014;12.052;2023-07-29T09:51:11;23.60;90.30
19039;DHT22;9652;49.014;12.052;2023-07-29T09:53:42;23.70;90.40
19039;DHT22;9652;49.014;12.052;2023-07-29T09:56:10;23.70;89.90
19039;DHT22;9652;49.014;12.052;2023-07-29T09:58:42;23.80;90.00
19039;DHT22;9652;49.014;12.052;2023-07-29T10:01:11;23.80;89.90
19039;DHT22;9652;49.014;12.052;2023-07-29T10:03:39;23.90;89.40
19039;DHT22;9652;49.014;12.052;2023-07-29T10:06:07;23.90;87.80
19039;DHT22;9652;49.014;12.052;2023-07-29T10:08:35;23.90;87.10
19039;DHT22;9652;49.014;12.052;2023-07-29T10:11:05;23.80;86.50
19039;DHT22;9652;49.014;12.052;2023-07-29T10:13:36;23.60;84.60
19039;DHT22;9652;49.014;12.052;2023-07-29T10:16:04;23.50;84.20
19039;DHT22;9652;49.014;12.052;2023-07-29T10:18:32;23.30;84.50
19039;DHT22;9652;49.014;12.052;2023-07-29T10:21:02;23.20;85.40
19039;DHT22;9652;49.014;12.052;2023-07-29T10:23:34;23.00;86.10
19039;DHT22;9652;49.014;12.052;2023-07-29T10:26:10;22.90;86.70
19039;DHT22;9652;49.014;12.052;2023-07-29T10:28:40;22.80;87.10
19039;DHT22;9652;49.014;12.052;2023-07-29T10:31:10;22.70;87.60
19039;DHT22;9652;49.014;12.052;2023-07-29T10:33:39;22.70;88.20
19039;DHT22;9652;49.014;12.052;2023-07-29T10:36:07;22.70;89.10
19039;DHT22;9652;49.014;12.052;2023-07-29T10:38:35;22.60;90.00
19039;DHT22;9652;49.014;12.052;2023-07-29T10:41:03;22.70;90.70
19039;DHT22;9652;49.014;12.052;2023-07-29T10:43:32;22.80;91.30
19039;DHT22;9652;49.014;12.052;2023-07-29T10:46:17;22.90;91.80
19039;DHT22;9652;49.014;12.052;2023-07-29T10:48:53;23.10;92.20
19039;DHT22;9652;49.014;12.052;2023-07-29T10:51:29;23.30;92.30
19039;DHT22;9652;49.014;12.052;2023-07-29T10:54:00;23.50;92.60
19039;DHT22;9652;49.014;12.052;2023-07-29T10:56:29;23.70;92.30
19039;DHT22;9652;49.014;12.052;2023-07-29T10:58:59;23.90;91.80
19039;DHT22;9652;49.014;12.052;2023-07-29T11:01:56;23.90;91.50
19039;DHT22;9652;49.014;12.052;2023-07-29T11:04:25;24.00;91.50
19039;DHT22;9652;49.014;12.052;2023-07-29T11:07:22;24.20;91.40
19039;DHT22;9652;49.014;12.052;2023-07-29T11:09:57;24.20;91.30
19039;DHT22;9652;49.014;12.052;2023-07-29T11:12:43;24.30;90.70
19039;DHT22;9652;49.014;12.052;2023-07-29T11:15:18;24.30;90.90
19039;DHT22;9652;49.014;12.052;2023-07-29T11:17:49;24.40;90.90
19039;DHT22;9652;49.014;12.052;2023-07-29T11:20:21;24.40;91.20
19039;DHT22;9652;49.014;12.052;2023-07-29T11:22:49;24.50;91.70
19039;DHT22;9652;49.014;12.052;2023-07-29T11:25:17;24.60;91.30
19039;DHT22;9652;49.014;12.052;2023-07-29T11:27:45;24.70;90.80
19039;DHT22;9652;49.014;12.052;2023-07-29T11:30:14;24.70;90.80
19039;DHT22;9652;49.014;12.052;2023-07-29T11:32:43;24.70;91.30
19039;DHT22;9652;49.014;12.052;2023-07-29T11:35:14;24.90;91.30
19039;DHT22;9652;49.014;12.052;2023-07-29T11:37:44;25.00;91.10
19039;DHT22;9652;49.014;12.052;2023-07-29T11:40:14;25.10;91.10
19039;DHT22;9652;49.014;12.052;2023-07-29T11:42:42;25.10;91.30
19039;DHT22;9652;49.014;12.052;2023-07-29T11:45:10;25.20;91.40
19039;DHT22;9652;49.014;12.052;2023-07-29T11:47:38;25.40;91.60
19039;DHT22;9652;49.014;12.052;2023-07-29T11:50:06;25.50;92.10
19039;DHT22;9652;49.014;12.052;2023-07-29T11:52:37;25.70;92.80
19039;DHT22;9652;49.014;12.052;2023-07-29T11:55:06;25.90;92.60
19039;DHT22;9652;49.014;12.052;2023-07-29T11:57:36;26.00;92.00
19039;DHT22;9652;49.014;12.052;2023-07-29T12:00:06;26.20;91.60
19039;DHT22;9652;49.014;12.052;2023-07-29T12:02:37;26.30;91.70
19039;DHT22;9652;49.014;12.052;2023-07-29T12:05:06;26.40;92.10
19039;DHT22;9652;49.014;12.052;2023-07-29T12:07:38;26.50;91.80
19039;DHT22;9652;49.014;12.052;2023-07-29T12:10:06;26.60;91.40
19039;DHT22;9652;49.014;12.052;2023-07-29T12:12:38;26.70;91.30
19039;DHT22;9652;49.014;12.052;2023-07-29T12:15:10;26.70;90.70
19039;DHT22;9652;49.014;12.052;2023-07-29T12:17:39;26.70;90.50
19039;DHT22;9652;49.014;12.052;2023-07-29T12:20:09;26.80;90.70
19039;DHT22;9652;49.014;12.052;2023-07-29T12:22:38;26.90;91.10
19039;DHT22;9652;49.014;12.052;2023-07-29T12:25:06;27.00;91.30
19039;DHT22;9652;49.014;12.052;2023-07-29T12:27:33;27.00;91.60
19039;DHT22;9652;49.014;12.052;2023-07-29T12:30:02;27.10;91.70
19039;DHT22;9652;49.014;12.052;2023-07-29T12:32:30;27.30;91.70
19039;DHT22;9652;49.014;12.052;2023-07-29T12:34:57;27.40;91.70
19039;DHT22;9652;49.014;12.052;2023-07-29T12:37:31;27.50;91.50
19039;DHT22;9652;49.014;12.052;2023-07-29T12:40:00;27.60;90.70
19039;DHT22;9652;49.014;12.052;2023-07-29T12:42:29;27.70;90.20
19039;DHT22;9652;49.014;12.052;2023-07-29T12:44:56;27.70;90.20
19039;DHT22;9652;49.014;12.052;2023-07-29T12:47:23;27.70;90.00
19039;DHT22;9652;49.014;12.052;2023-07-29T12:49:50;27.70;89.40
19039;DHT22;9652;49.014;12.052;2023-07-29T12:52:17;27.70;89.80
19039;DHT22;9652;49.014;12.052;2023-07-29T12:54:44;27.80;89.80
19039;DHT22;9652;49.014;12.052;2023-07-29T12:57:12;27.70;89.20
19039;DHT22;9652;49.014;12.052;2023-07-29T12:59:39;27.80;89.40
19039;DHT22;9652;49.014;12.052;2023-07-29T13:02:07;27.80;89.40
19039;DHT22;9652;49.014;12.052;2023-07-29T13:04:34;27.80;89.10
19039;DHT22;9652;49.014;12.052;2023-07-29T13:07:01;27.90;88.40
19039;DHT22;9652;49.014;12.052;2023-07-29T13:09:28;27.70;87.60
19039;DHT22;9652;49.014;12.052;2023-07-29T13:11:55;27.70;87.20
19039;DHT22;9652;49.014;12.052;2023-07-29T13:14:23;27.60;86.70
19039;DHT22;9652;49.014;12.052;2023-07-29T13:16:52;27.50;86.90
19039;DHT22;9652;49.014;12.052;2023-07-29T13:19:19;27.40;87.30
19039;DHT22;9652;49.014;12.052;2023-07-29T13:21:46;27.30;87.50
19039;DHT22;9652;49.014;12.052;2023-07-29T13:24:13;27.30;88.30
19039;DHT22;9652;49.014;12.052;2023-07-29T13:26:40;27.20;88.50
19039;DHT22;9652;49.014;12.052;2023-07-29T13:29:07;27.20;88.30
19039;DHT22;9652;49.014;12.052;2023-07-29T13:31:36;27.20;88.60
19039;DHT22;9652;49.014;12.052;2023-07-29T13:34:03;27.20;90.00
19039;DHT22;9652;49.014;12.052;2023-07-29T13:36:30;27.20;90.60
19039;DHT22;9652;49.014;12.052;2023-07-29T13:38:57;27.30;91.10
19039;DHT22;9652;49.014;12.052;2023-07-29T13:41:24;27.40;91.10
19039;DHT22;9652;49.014;12.052;2023-07-29T13:43:51;27.60;91.60
19039;DHT22;9652;49.014;12.052;2023-07-29T13:46:18;27.70;91.60
19039;DHT22;9652;49.014;12.052;2023-07-29T13:48:48;27.80;91.30
19039;DHT22;9652;49.014;12.052;2023-07-29T13:51:15;28.10;91.70
19039;DHT22;9652;49.014;12.052;2023-07-29T13:53:42;28.30;92.30
19039;DHT22;9652;49.014;12.052;2023-07-29T13:56:10;28.50;92.60
19039;DHT22;9652;49.014;12.052;2023-07-29T13:58:37;28.80;91.60
19039;DHT22;9652;49.014;12.052;2023-07-29T14:01:04;29.10;90.80
19039;DHT22;9652;49.014;12.052;2023-07-29T14:03:31;29.30;90.20
19039;DHT22;9652;49.014;12.052;2023-07-29T14:06:00;29.50;90.20
19039;DHT22;9652;49.014;12.052;2023-07-29T14:08:27;29.70;89.40
19039;DHT22;9652;49.014;12.052;2023-07-29T14:10:54;29.90;88.30
19039;DHT22;9652;49.014;12.052;2023-07-29T14:13:21;30.00;86.80
19039;DHT22;9652;49.014;12.052;2023-07-29T14:15:48;30.30;85.20
19039;DHT22;9652;49.014;12.052;2023-07-29T14:18:15;30.50;82.40
19039;DHT22;9652;49.014;12.052;2023-07-29T14:20:42;30.50;81.40
19039;DHT22;9652;49.014;12.052;2023-07-29T14:23:11;30.60;80.50
19039;DHT22;9652;49.014;12.052;2023-07-29T14:25:38;30.50;80.00
19039;DHT22;9652;49.014;12.052;2023-07-29T14:28:05;30.50;79.00
19039;DHT22;9652;49.014;12.052;2023-07-29T14:30:33;30.50;76.60
19039;DHT22;9652;49.014;12.052;2023-07-29T14:33:04;30.50;74.40
19039;DHT22;9652;49.014;12.052;2023-07-29T14:35:32;30.40;75.20
19039;DHT22;9652;49.014;12.052;2023-07-29T14:37:59;30.20;72.90
19039;DHT22;9652;49.014;12.052;2023-07-29T14:40:27;30.10;73.30
19039;DHT22;9652;49.014;12.052;2023-07-29T14:42:54;30.00;73.70
19039;DHT22;9652;49.014;12.052;2023-07-29T14:45:21;30.00;74.30
19039;DHT22;9652;49.014;12.052;2023-07-29T14:47:48;30.00;74.40
19039;DHT22;9652;49.014;12.052;2023-07-29T14:50:15;30.00;75.00
19039;DHT22;9652;49.014;12.052;2023-07-29T14:52:42;30.00;74.60
19039;DHT22;9652;49.014;12.052;2023-07-29T14:55:09;30.10;75.00
19039;DHT22;9652;49.014;12.052;2023-07-29T14:57:38;30.20;73.70
19039;DHT22;9652;49.014;12.052;2023-07-29T15:00:07;30.30;73.30
19039;DHT22;9652;49.014;12.052;2023-07-29T15:02:35;30.40;72.50
19039;DHT22;9652;49.014;12.052;2023-07-29T15:05:02;30.40;70.50
19039;DHT22;9652;49.014;12.052;2023-07-29T15:07:29;30.40;70.50
19039;DHT22;9652;49.014;12.052;2023-07-29T15:09:56;30.40;69.30
19039;DHT22;9652;49.014;12.052;2023-07-29T15:12:24;30.30;69.00
19039;DHT22;9652;49.014;12.052;2023-07-29T15:14:52;30.30;68.50
19039;DHT22;9652;49.014;12.052;2023-07-29T15:17:19;30.20;68.40
19039;DHT22;9652;49.014;12.052;2023-07-29T15:19:46;30.20;68.00
19039;DHT22;9652;49.014;12.052;2023-07-29T15:22:15;30.10;68.30
19039;DHT22;9652;49.014;12.052;2023-07-29T15:24:42;30.20;69.10
19039;DHT22;9652;49.014;12.052;2023-07-29T15:27:09;30.20;68.80
19039;DHT22;9652;49.014;12.052;2023-07-29T15:29:37;30.30;68.00
19039;DHT22;9652;49.014;12.052;2023-07-29T15:32:06;30.40;68.10
19039;DHT22;9652;49.014;12.052;2023-07-29T15:34:33;30.50;67.30
19039;DHT22;9652;49.014;12.052;2023-07-29T15:37:01;30.60;67.20